sensor_id;sensor_type;location;lat;lon;timestamp;pressure;altitude;pressure_sealevel;temperature;humidity
18500;BME280;9379;52.134;11.576;2023-03-14T00:01:20;98501.41;;;14.05;96.21
18500;BME280;9379;52.134;11.576;2023-03-14T00:03:47;98505.72;;;14.13;95.79
18500;BME280;9379;52.134;11.576;2023-03-14T00:06:15;98514.81;;;13.72;96.87
18500;BME280;9379;52.134;11.576;2023-03-14T00:08:43;98534.47;;;14.17;95.79
18500;BME280;9379;52.134;11.576;2023-03-14T00:11:12;98540.19;;;14.27;95.06
18500;BME280;9379;52.134;11.576;2023-03-14T00:13:39;98529.72;;;14.19;94.54
18500;BME280;9379;52.134;11.576;2023-03-14T00:16:08;98524.41;;;14.13;94.72
18500;BME280;9379;52.134;11.576;2023-03-14T00:18:37;98522.53;;;14.26;93.83
18500;BME280;9379;52.134;11.576;2023-03-14T00:21:05;98539.59;;;14.12;93.80
18500;BME280;9379;52.134;11.576;2023-03-14T00:23:34;98536.31;;;14.10;94.20
18500;BME280;9379;52.134;11.576;2023-03-14T00:26:05;98509.38;;;14.12;93.89
18500;BME280;9379;52.134;11.576;2023-03-14T00:28:32;98508.34;;;14.19;94.04
18500;BME280;9379;52.134;11.576;2023-03-14T00:31:02;98483.75;;;14.04;94.14
18500;BME280;9379;52.134;11.576;2023-03-14T00:33:29;98479.03;;;13.93;94.82
18500;BME280;9379;52.134;11.576;2023-03-14T00:35:58;98490.94;;;14.04;94.37
18500;BME280;9379;52.134;11.576;2023-03-14T00:38:25;98494.88;;;13.81;94.83
18500;BME280;9379;52.134;11.576;2023-03-14T00:40:53;98492.97;;;14.15;93.70
18500;BME280;9379;52.134;11.576;2023-03-14T00:43:20;98496.50;;;13.95;93.56
18500;BME280;9379;52.134;11.576;2023-03-14T00:45:48;98509.66;;;13.37;96.28
18500;BME280;9379;52.134;11.576;2023-03-14T00:48:15;98507.41;;;13.41;96.17
18500;BME280;9379;52.134;11.576;2023-03-14T00:50:42;98515.97;;;13.10;98.73
18500;BME280;9379;52.134;11.576;2023-03-14T00:53:10;98525.78;;;12.90;99.39
18500;BME280;9379;52.134;11.576;2023-03-14T00:55:37;98500.75;;;12.91;98.53
18500;BME280;9379;52.134;11.576;2023-03-14T00:58:05;98538.94;;;13.18;97.60
18500;BME280;9379;52.134;11.576;2023-03-14T01:00:32;98548.44;;;13.27;96.92
18500;BME280;9379;52.134;11.576;2023-03-14T01:02:59;98530.94;;;12.98;97.44
18500;BME280;9379;52.134;11.576;2023-03-14T01:05:26;98561.38;;;13.30;97.59
18500;BME280;9379;52.134;11.576;2023-03-14T01:07:53;98535.28;;;13.19;97.17
18500;BME280;9379;52.134;11.576;2023-03-14T01:10:22;98547.03;;;13.44;96.63
18500;BME280;9379;52.134;11.576;2023-03-14T01:12:48;98521.47;;;12.95;98.10
18500;BME280;9379;52.134;11.576;2023-03-14T01:15:15;98549.59;;;12.98;98.93
18500;BME280;9379;52.134;11.576;2023-03-14T01:17:42;98542.19;;;12.93;98.72
18500;BME280;9379;52.134;11.576;2023-03-14T01:20:12;98566.03;;;13.14;97.80
18500;BME280;9379;52.134;11.576;2023-03-14T01:22:40;98557.41;;;13.12;97.47
18500;BME280;9379;52.134;11.576;2023-03-14T01:25:08;98564.75;;;13.04;98.57
18500;BME280;9379;52.134;11.576;2023-03-14T01:27:37;98547.56;;;13.13;98.27
18500;BME280;9379;52.134;11.576;2023-03-14T01:30:05;98556.06;;;13.43;96.21
18500;BME280;9379;52.134;11.576;2023-03-14T01:32:33;98571.28;;;12.88;97.76
18500;BME280;9379;52.134;11.576;2023-03-14T01:35:00;98567.81;;;12.88;98.25
18500;BME280;9379;52.134;11.576;2023-03-14T01:37:27;98552.63;;;12.88;98.35
18500;BME280;9379;52.134;11.576;2023-03-14T01:39:54;98556.59;;;13.12;96.85
18500;BME280;9379;52.134;11.576;2023-03-14T01:42:21;98557.69;;;13.24;96.20
18500;BME280;9379;52.134;11.576;2023-03-14T01:44:51;98548.31;;;12.87;96.90
18500;BME280;9379;52.134;11.576;2023-03-14T01:47:19;98520.00;;;12.79;97.14
18500;BME280;9379;52.134;11.576;2023-03-14T01:49:47;98541.25;;;13.21;95.32
18500;BME280;9379;52.134;11.576;2023-03-14T01:52:17;98519.00;;;12.87;95.64
18500;BME280;9379;52.134;11.576;2023-03-14T01:54:48;98524.22;;;13.28;94.64
18500;BME280;9379;52.134;11.576;2023-03-14T01:57:21;98525.59;;;13.04;95.45
18500;BME280;9379;52.134;11.576;2023-03-14T01:59:53;98492.75;;;12.91;95.50
18500;BME280;9379;52.134;11.576;2023-03-14T02:02:21;98476.19;;;13.08;94.80
18500;BME280;9379;52.134;11.576;2023-03-14T02:04:49;98491.13;;;13.03;95.32
18500;BME280;9379;52.134;11.576;2023-03-14T02:07:20;98459.31;;;12.81;94.85
18500;BME280;9379;52.134;11.576;2023-03-14T02:09:49;98471.63;;;12.89;94.73
18500;BME280;9379;52.134;11.576;2023-03-14T02:12:18;98474.31;;;13.02;94.20
18500;BME280;9379;52.134;11.576;2023-03-14T02:14:47;98462.59;;;12.83;94.94
18500;BME280;9379;52.134;11.576;2023-03-14T02:17:17;98468.72;;;12.84;94.35
18500;BME280;9379;52.134;11.576;2023-03-14T02:19:53;98470.81;;;12.89;93.90
18500;BME280;9379;52.134;11.576;2023-03-14T02:22:27;98464.28;;;13.11;92.40
18500;BME280;9379;52.134;11.576;2023-03-14T02:25:03;98460.13;;;12.82;93.64
18500;BME280;9379;52.134;11.576;2023-03-14T02:27:34;98458.50;;;12.94;92.51
18500;BME280;9379;52.134;11.576;2023-03-14T02:30:04;98463.84;;;12.94;92.43
18500;BME280;9379;52.134;11.576;2023-03-14T02:32:33;98477.78;;;12.96;92.33
18500;BME280;9379;52.134;11.576;2023-03-14T02:35:04;98489.44;;;12.82;93.06
18500;BME280;9379;52.134;11.576;2023-03-14T02:37:35;98493.56;;;12.91;92.99
18500;BME280;9379;52.134;11.576;2023-03-14T02:40:04;98467.25;;;12.62;92.92
18500;BME280;9379;52.134;11.576;2023-03-14T02:42:31;98473.44;;;12.82;92.11
18500;BME280;9379;52.134;11.576;2023-03-14T02:45:33;98467.13;;;12.90;91.80
18500;BME280;9379;52.134;11.576;2023-03-14T02:47:53;98481.94;;;13.19;90.98
18500;BME280;9379;52.134;11.576;2023-03-14T02:50:23;98469.25;;;13.34;90.16
18500;BME280;9379;52.134;11.576;2023-03-14T02:52:51;98476.22;;;13.48;89.26
18500;BME280;9379;52.134;11.576;2023-03-14T02:55:20;98466.59;;;13.21;90.45
18500;BME280;9379;52.134;11.576;2023-03-14T02:57:47;98449.06;;;12.78;91.60
18500;BME280;9379;52.134;11.576;2023-03-14T03:00:14;98444.59;;;13.19;90.90
18500;BME280;9379;52.134;11.576;2023-03-14T03:02:41;98444.78;;;12.97;91.07
18500;BME280;9379;52.134;11.576;2023-03-14T03:05:09;98451.53;;;12.93;91.44
18500;BME280;9379;52.134;11.576;2023-03-14T03:07:36;98458.88;;;12.71;91.35
18500;BME280;9379;52.134;11.576;2023-03-14T03:10:04;98457.19;;;12.50;92.12
18500;BME280;9379;52.134;11.576;2023-03-14T03:12:31;98447.19;;;12.66;91.70
18500;BME280;9379;52.134;11.576;2023-03-14T03:14:58;98432.66;;;12.75;90.60
18500;BME280;9379;52.134;11.576;2023-03-14T03:17:24;98434.91;;;12.84;89.90
18500;BME280;9379;52.134;11.576;2023-03-14T03:19:51;98446.53;;;12.57;91.59
18500;BME280;9379;52.134;11.576;2023-03-14T03:22:19;98430.97;;;12.54;90.92
18500;BME280;9379;52.134;11.576;2023-03-14T03:24:46;98419.34;;;12.88;89.17
18500;BME280;9379;52.134;11.576;2023-03-14T03:27:13;98424.44;;;12.70;89.91
18500;BME280;9379;52.134;11.576;2023-03-14T03:29:40;98439.00;;;12.80;89.01
18500;BME280;9379;52.134;11.576;2023-03-14T03:32:06;98431.44;;;12.91;88.34
18500;BME280;9379;52.134;11.576;2023-03-14T03:34:33;98436.34;;;12.80;89.39
18500;BME280;9379;52.134;11.576;2023-03-14T03:37:00;98433.41;;;12.55;90.14
18500;BME280;9379;52.134;11.576;2023-03-14T03:39:28;98426.22;;;12.49;90.07
18500;BME280;9379;52.134;11.576;2023-03-14T03:41:55;98425.63;;;12.61;89.70
18500;BME280;9379;52.134;11.576;2023-03-14T03:44:22;98421.91;;;12.48;90.06
18500;BME280;9379;52.134;11.576;2023-03-14T03:46:48;98421.78;;;12.63;89.67
18500;BME280;9379;52.134;11.576;2023-03-14T03:49:15;98423.03;;;12.74;88.87
18500;BME280;9379;52.134;11.576;2023-03-14T03:51:42;98419.25;;;12.42;90.25
18500;BME280;9379;52.134;11.576;2023-03-14T03:54:09;98416.63;;;12.55;89.53
18500;BME280;9379;52.134;11.576;2023-03-14T03:56:37;98422.59;;;12.70;88.97
18500;BME280;9379;52.134;11.576;2023-03-14T03:59:04;98418.69;;;12.73;89.14
18500;BME280;9379;52.134;11.576;2023-03-14T04:01:30;98425.81;;;12.46;90.19
18500;BME280;9379;52.134;11.576;2023-03-14T04:03:57;98429.13;;;12.54;89.09
18500;BME280;9379;52.134;11.576;2023-03-14T04:06:24;98444.34;;;12.80;88.67
18500;BME280;9379;52.134;11.576;2023-03-14T04:08:51;98416.63;;;12.62;89.48
18500;BME280;9379;52.134;11.576;2023-03-14T04:11:17;98445.19;;;13.14;87.71
18500;BME280;9379;52.134;11.576;2023-03-14T04:13:46;98434.75;;;13.19;86.46
18500;BME280;9379;52.134;11.576;2023-03-14T04:16:15;98437.63;;;13.31;86.15
18500;BME280;9379;52.134;11.576;2023-03-14T04:18:42;98448.72;;;13.21;86.76
18500;BME280;9379;52.134;11.576;2023-03-14T04:21:09;98442.97;;;13.31;86.31
18500;BME280;9379;52.134;11.576;2023-03-14T04:23:36;98442.91;;;12.78;88.35
18500;BME280;9379;52.134;11.576;2023-03-14T04:26:03;98438.41;;;12.78;88.58
18500;BME280;9379;52.134;11.576;2023-03-14T04:28:30;98429.78;;;12.83;88.30
18500;BME280;9379;52.134;11.576;2023-03-14T04:30:58;98417.69;;;12.94;87.58
18500;BME280;9379;52.134;11.576;2023-03-14T04:33:25;98425.69;;;12.87;88.24
18500;BME280;9379;52.134;11.576;2023-03-14T04:35:53;98422.03;;;13.01;86.69
18500;BME280;9379;52.134;11.576;2023-03-14T04:38:21;98397.59;;;12.84;86.83
18500;BME280;9379;52.134;11.576;2023-03-14T04:40:47;98409.69;;;13.07;86.91
18500;BME280;9379;52.134;11.576;2023-03-14T04:43:14;98408.06;;;13.12;87.21
18500;BME280;9379;52.134;11.576;2023-03-14T04:45:41;98381.56;;;12.58;88.16
18500;BME280;9379;52.134;11.576;2023-03-14T04:48:10;98401.09;;;12.92;87.73
18500;BME280;9379;52.134;11.576;2023-03-14T04:50:37;98399.63;;;12.69;88.45
18500;BME280;9379;52.134;11.576;2023-03-14T04:53:04;98407.44;;;12.77;88.26
18500;BME280;9379;52.134;11.576;2023-03-14T04:55:31;98385.88;;;12.52;89.44
18500;BME280;9379;52.134;11.576;2023-03-14T04:57:59;98394.09;;;12.77;88.52
18500;BME280;9379;52.134;11.576;2023-03-14T05:00:25;98374.16;;;12.47;89.33
18500;BME280;9379;52.134;11.576;2023-03-14T05:02:52;98379.38;;;12.88;88.92
18500;BME280;9379;52.134;11.576;2023-03-14T05:05:21;98384.06;;;12.79;88.51
18500;BME280;9379;52.134;11.576;2023-03-14T05:07:48;98384.06;;;13.06;87.82
18500;BME280;9379;52.134;11.576;2023-03-14T05:10:15;98391.84;;;12.94;87.81
18500;BME280;9379;52.134;11.576;2023-03-14T05:12:42;98391.88;;;12.88;88.48
18500;BME280;9379;52.134;11.576;2023-03-14T05:15:09;98392.91;;;13.26;86.76
18500;BME280;9379;52.134;11.576;2023-03-14T05:17:36;98391.03;;;13.13;87.12
18500;BME280;9379;52.134;11.576;2023-03-14T05:20:03;98365.22;;;13.01;87.63
18500;BME280;9379;52.134;11.576;2023-03-14T05:22:34;98365.63;;;12.78;87.85
18500;BME280;9379;52.134;11.576;2023-03-14T05:25:01;98376.44;;;12.56;89.26
18500;BME280;9379;52.134;11.576;2023-03-14T05:27:28;98367.66;;;12.76;88.52
18500;BME280;9379;52.134;11.576;2023-03-14T05:29:55;98385.50;;;12.89;87.73
18500;BME280;9379;52.134;11.576;2023-03-14T05:32:22;98386.97;;;12.98;87.90
18500;BME280;9379;52.134;11.576;2023-03-14T05:34:48;98383.22;;;12.66;89.14
18500;BME280;9379;52.134;11.576;2023-03-14T05:37:15;98371.13;;;12.63;89.09
18500;BME280;9379;52.134;11.576;2023-03-14T05:39:43;98362.91;;;12.58;89.32
18500;BME280;9379;52.134;11.576;2023-03-14T05:42:10;98341.59;;;12.58;88.51
18500;BME280;9379;52.134;11.576;2023-03-14T05:44:37;98334.19;;;12.34;89.46
18500;BME280;9379;52.134;11.576;2023-03-14T05:47:04;98354.13;;;12.91;87.77
18500;BME280;9379;52.134;11.576;2023-03-14T05:49:31;98361.91;;;12.92;88.08
18500;BME280;9379;52.134;11.576;2023-03-14T05:51:58;98371.13;;;12.56;89.49
18500;BME280;9379;52.134;11.576;2023-03-14T05:54:24;98363.75;;;12.52;89.63
18500;BME280;9379;52.134;11.576;2023-03-14T05:56:52;98373.97;;;12.42;90.31
18500;BME280;9379;52.134;11.576;2023-03-14T05:59:19;98371.53;;;12.67;89.68
18500;BME280;9379;52.134;11.576;2023-03-14T06:01:46;98366.22;;;12.80;88.85
18500;BME280;9379;52.134;11.576;2023-03-14T06:04:13;98368.63;;;12.48;89.88
18500;BME280;9379;52.134;11.576;2023-03-14T06:06:40;98367.00;;;12.47;89.72
18500;BME280;9379;52.134;11.576;2023-03-14T06:09:06;98370.09;;;12.71;89.18
18500;BME280;9379;52.134;11.576;2023-03-14T06:11:33;98382.03;;;12.75;89.23
18500;BME280;9379;52.134;11.576;2023-03-14T06:14:01;98341.19;;;12.94;87.55
18500;BME280;9379;52.134;11.576;2023-03-14T06:16:28;98363.56;;;13.26;87.42
18500;BME280;9379;52.134;11.576;2023-03-14T06:18:55;98361.72;;;13.00;86.96
18500;BME280;9379;52.134;11.576;2023-03-14T06:21:22;98365.81;;;12.83;87.90
18500;BME280;9379;52.134;11.576;2023-03-14T06:23:49;98365.00;;;12.89;87.65
18500;BME280;9379;52.134;11.576;2023-03-14T06:26:16;98369.09;;;12.65;87.80
18500;BME280;9379;52.134;11.576;2023-03-14T06:28:43;98365.41;;;12.99;86.40
18500;BME280;9379;52.134;11.576;2023-03-14T06:31:11;98365.22;;;13.21;85.34
18500;BME280;9379;52.134;11.576;2023-03-14T06:33:39;98377.72;;;13.47;84.98
18500;BME280;9379;52.134;11.576;2023-03-14T06:36:17;98370.53;;;13.14;86.33
18500;BME280;9379;52.134;11.576;2023-03-14T06:42:06;98354.53;;;13.07;85.73
18500;BME280;9379;52.134;11.576;2023-03-14T06:44:32;98388.81;;;13.37;84.73
18500;BME280;9379;52.134;11.576;2023-03-14T06:47:01;98375.47;;;13.10;85.90
18500;BME280;9379;52.134;11.576;2023-03-14T06:49:27;98388.59;;;13.12;86.47
18500;BME280;9379;52.134;11.576;2023-03-14T06:51:54;98403.16;;;13.09;86.53
18500;BME280;9379;52.134;11.576;2023-03-14T06:54:21;98415.66;;;13.68;85.29
18500;BME280;9379;52.134;11.576;2023-03-14T06:56:48;98426.72;;;13.79;84.52
18500;BME280;9379;52.134;11.576;2023-03-14T06:59:15;98421.78;;;13.82;84.02
18500;BME280;9379;52.134;11.576;2023-03-14T07:01:42;98422.75;;;14.01;83.70
18500;BME280;9379;52.134;11.576;2023-03-14T07:04:10;98427.53;;;13.72;84.60
18500;BME280;9379;52.134;11.576;2023-03-14T07:06:37;98428.59;;;13.52;83.68
18500;BME280;9379;52.134;11.576;2023-03-14T07:09:05;98430.41;;;13.64;83.63
18500;BME280;9379;52.134;11.576;2023-03-14T07:11:31;98418.88;;;13.90;83.35
18500;BME280;9379;52.134;11.576;2023-03-14T07:14:00;98417.41;;;13.88;82.75
18500;BME280;9379;52.134;11.576;2023-03-14T07:16:27;98417.53;;;13.55;83.53
18500;BME280;9379;52.134;11.576;2023-03-14T07:18:56;98404.75;;;13.70;82.78
18500;BME280;9379;52.134;11.576;2023-03-14T07:21:25;98417.06;;;13.71;83.08
18500;BME280;9379;52.134;11.576;2023-03-14T07:23:52;98408.31;;;14.09;82.55
18500;BME280;9379;52.134;11.576;2023-03-14T07:26:19;98401.81;;;13.91;81.41
18500;BME280;9379;52.134;11.576;2023-03-14T07:28:45;98410.97;;;14.15;79.66
18500;BME280;9379;52.134;11.576;2023-03-14T07:31:12;98405.97;;;13.74;81.01
18500;BME280;9379;52.134;11.576;2023-03-14T07:33:39;98404.78;;;14.21;80.13
18500;BME280;9379;52.134;11.576;2023-03-14T07:36:07;98397.91;;;14.39;79.18
18500;BME280;9379;52.134;11.576;2023-03-14T07:38:35;98394.09;;;14.21;79.91
18500;BME280;9379;52.134;11.576;2023-03-14T07:41:03;98394.00;;;14.79;77.88
18500;BME280;9379;52.134;11.576;2023-03-14T07:43:31;98391.72;;;14.51;79.65
18500;BME280;9379;52.134;11.576;2023-03-14T07:45:59;98363.88;;;14.91;77.45
18500;BME280;9379;52.134;11.576;2023-03-14T07:48:26;98385.03;;;13.71;82.91
18500;BME280;9379;52.134;11.576;2023-03-14T07:50:53;98360.72;;;15.00;79.06
18500;BME280;9379;52.134;11.576;2023-03-14T07:53:21;98379.84;;;15.90;76.73
18500;BME280;9379;52.134;11.576;2023-03-14T07:55:52;98376.06;;;15.55;76.65
18500;BME280;9379;52.134;11.576;2023-03-14T07:58:19;98374.81;;;14.57;79.03
18500;BME280;9379;52.134;11.576;2023-03-14T08:00:48;98362.75;;;13.97;80.85
18500;BME280;9379;52.134;11.576;2023-03-14T08:03:15;98375.81;;;14.18;80.41
18500;BME280;9379;52.134;11.576;2023-03-14T08:05:42;98378.78;;;14.42;79.84
18500;BME280;9379;52.134;11.576;2023-03-14T08:08:09;98372.34;;;14.87;78.25
18500;BME280;9379;52.134;11.576;2023-03-14T08:10:36;98362.59;;;14.30;79.17
18500;BME280;9379;52.134;11.576;2023-03-14T08:13:08;98366.16;;;14.24;78.67
18500;BME280;9379;52.134;11.576;2023-03-14T08:15:35;98370.03;;;14.21;79.30
18500;BME280;9379;52.134;11.576;2023-03-14T08:18:02;98362.34;;;14.45;78.56
18500;BME280;9379;52.134;11.576;2023-03-14T08:20:29;98378.63;;;14.68;78.20
18500;BME280;9379;52.134;11.576;2023-03-14T08:22:56;98373.59;;;14.53;79.54
18500;BME280;9379;52.134;11.576;2023-03-14T08:25:24;98375.56;;;14.71;77.84
18500;BME280;9379;52.134;11.576;2023-03-14T08:27:51;98346.84;;;15.10;76.40
18500;BME280;9379;52.134;11.576;2023-03-14T08:30:21;98372.56;;;15.11;76.88
18500;BME280;9379;52.134;11.576;2023-03-14T08:32:48;98359.06;;;14.74;77.45
18500;BME280;9379;52.134;11.576;2023-03-14T08:35:15;98369.69;;;14.56;77.61
18500;BME280;9379;52.134;11.576;2023-03-14T08:37:42;98365.34;;;14.86;76.75
18500;BME280;9379;52.134;11.576;2023-03-14T08:40:10;98357.94;;;14.57;77.59
18500;BME280;9379;52.134;11.576;2023-03-14T08:42:38;98364.09;;;14.64;78.32
18500;BME280;9379;52.134;11.576;2023-03-14T08:45:06;98355.47;;;14.62;77.66
18500;BME280;9379;52.134;11.576;2023-03-14T08:47:35;98368.16;;;14.98;77.02
18500;BME280;9379;52.134;11.576;2023-03-14T08:50:02;98343.25;;;14.35;77.48
18500;BME280;9379;52.134;11.576;2023-03-14T08:52:29;98345.91;;;14.41;77.25
18500;BME280;9379;52.134;11.576;2023-03-14T08:54:57;98347.81;;;15.15;75.37
18500;BME280;9379;52.134;11.576;2023-03-14T08:57:24;98344.41;;;15.08;76.06
18500;BME280;9379;52.134;11.576;2023-03-14T08:59:53;98347.69;;;15.10;74.41
18500;BME280;9379;52.134;11.576;2023-03-14T09:02:20;98338.13;;;15.21;74.16
18500;BME280;9379;52.134;11.576;2023-03-14T09:04:49;98339.09;;;15.02;75.84
18500;BME280;9379;52.134;11.576;2023-03-14T09:07:16;98341.28;;;14.86;75.99
18500;BME280;9379;52.134;11.576;2023-03-14T09:09:43;98346.75;;;14.73;76.26
18500;BME280;9379;52.134;11.576;2023-03-14T09:12:10;98342.00;;;15.00;76.42
18500;BME280;9379;52.134;11.576;2023-03-14T09:14:37;98335.47;;;14.96;76.13
18500;BME280;9379;52.134;11.576;2023-03-14T09:17:04;98345.31;;;15.21;75.56
18500;BME280;9379;52.134;11.576;2023-03-14T09:19:31;98343.13;;;15.11;75.57
18500;BME280;9379;52.134;11.576;2023-03-14T09:21:59;98327.13;;;15.04;75.63
18500;BME280;9379;52.134;11.576;2023-03-14T09:24:26;98347.69;;;15.10;75.48
18500;BME280;9379;52.134;11.576;2023-03-14T09:26:54;98350.63;;;15.02;75.99
18500;BME280;9379;52.134;11.576;2023-03-14T09:29:21;98362.50;;;15.31;75.93
18500;BME280;9379;52.134;11.576;2023-03-14T09:31:48;98357.91;;;15.38;75.03
18500;BME280;9379;52.134;11.576;2023-03-14T09:34:15;98361.97;;;16.02;74.59
18500;BME280;9379;52.134;11.576;2023-03-14T09:36:41;98364.16;;;15.51;75.09
18500;BME280;9379;52.134;11.576;2023-03-14T09:39:11;98374.16;;;15.62;75.75
18500;BME280;9379;52.134;11.576;2023-03-14T09:41:41;98377.72;;;15.56;75.82
18500;BME280;9379;52.134;11.576;2023-03-14T09:44:12;98379.31;;;15.38;75.76
18500;BME280;9379;52.134;11.576;2023-03-14T09:46:41;98366.72;;;14.96;76.64
18500;BME280;9379;52.134;11.576;2023-03-14T09:49:11;98376.88;;;14.87;76.43
18500;BME280;9379;52.134;11.576;2023-03-14T09:51:39;98380.44;;;15.06;77.32
18500;BME280;9379;52.134;11.576;2023-03-14T09:54:23;98384.09;;;15.11;76.68
18500;BME280;9379;52.134;11.576;2023-03-14T09:56:52;98374.47;;;15.04;77.16
18500;BME280;9379;52.134;11.576;2023-03-14T09:59:20;98383.41;;;14.91;77.08
18500;BME280;9379;52.134;11.576;2023-03-14T10:01:47;98394.53;;;14.95;77.31
18500;BME280;9379;52.134;11.576;2023-03-14T10:04:15;98384.75;;;15.07;77.39
18500;BME280;9379;52.134;11.576;2023-03-14T10:06:44;98401.78;;;15.12;77.30
18500;BME280;9379;52.134;11.576;2023-03-14T10:09:19;98403.59;;;14.94;76.95
18500;BME280;9379;52.134;11.576;2023-03-14T10:14:32;98367.09;;;15.24;76.71
18500;BME280;9379;52.134;11.576;2023-03-14T10:17:11;98359.78;;;14.63;77.86
18500;BME280;9379;52.134;11.576;2023-03-14T10:19:50;98367.44;;;14.84;76.57
18500;BME280;9379;52.134;11.576;2023-03-14T10:22:18;98355.56;;;14.49;77.48
18500;BME280;9379;52.134;11.576;2023-03-14T10:24:53;98384.53;;;15.08;76.81
18500;BME280;9379;52.134;11.576;2023-03-14T10:27:23;98385.56;;;15.32;76.28
18500;BME280;9379;52.134;11.576;2023-03-14T10:29:55;98356.88;;;15.58;76.03
18500;BME280;9379;52.134;11.576;2023-03-14T10:32:28;98384.69;;;15.13;76.44
18500;BME280;9379;52.134;11.576;2023-03-14T10:35:07;98382.19;;;15.62;75.66
18500;BME280;9379;52.134;11.576;2023-03-14T10:37:35;98368.97;;;15.67;73.62
18500;BME280;9379;52.134;11.576;2023-03-14T10:40:04;98382.94;;;15.26;75.07
18500;BME280;9379;52.134;11.576;2023-03-14T10:42:34;98387.56;;;15.12;75.28
18500;BME280;9379;52.134;11.576;2023-03-14T10:45:24;98397.19;;;14.95;76.07
18500;BME280;9379;52.134;11.576;2023-03-14T10:47:54;98391.19;;;14.99;75.99
18500;BME280;9379;52.134;11.576;2023-03-14T10:50:25;98383.41;;;15.41;73.92
18500;BME280;9379;52.134;11.576;2023-03-14T10:52:53;98387.03;;;15.71;74.51
18500;BME280;9379;52.134;11.576;2023-03-14T10:55:24;98388.44;;;15.31;75.63
18500;BME280;9379;52.134;11.576;2023-03-14T10:57:51;98396.91;;;15.03;76.03
18500;BME280;9379;52.134;11.576;2023-03-14T11:00:20;98390.38;;;14.99;75.88
18500;BME280;9379;52.134;11.576;2023-03-14T11:03:02;98381.66;;;15.03;75.94
18500;BME280;9379;52.134;11.576;2023-03-14T11:05:34;98411.09;;;15.03;76.91
18500;BME280;9379;52.134;11.576;2023-03-14T11:08:09;98408.03;;;15.25;75.90
18500;BME280;9379;52.134;11.576;2023-03-14T11:10:39;98398.94;;;15.07;76.50
18500;BME280;9379;52.134;11.576;2023-03-14T11:13:16;98402.69;;;15.00;77.17
18500;BME280;9379;52.134;11.576;2023-03-14T11:15:54;98396.16;;;14.64;78.09
18500;BME280;9379;52.134;11.576;2023-03-14T11:21:28;98381.63;;;15.35;77.32
18500;BME280;9379;52.134;11.576;2023-03-14T11:24:06;98393.59;;;15.32;78.02
18500;BME280;9379;52.134;11.576;2023-03-14T11:26:43;98382.38;;;15.67;76.24
18500;BME280;9379;52.134;11.576;2023-03-14T11:29:20;98372.44;;;15.24;78.48
18500;BME280;9379;52.134;11.576;2023-03-14T11:31:47;98381.19;;;15.56;77.20
18500;BME280;9379;52.134;11.576;2023-03-14T11:34:17;98384.50;;;15.33;77.13
18500;BME280;9379;52.134;11.576;2023-03-14T11:36:51;98383.63;;;15.14;77.76
18500;BME280;9379;52.134;11.576;2023-03-14T11:39:20;98380.59;;;15.11;77.29
18500;BME280;9379;52.134;11.576;2023-03-14T11:41:50;98376.56;;;15.45;77.40
18500;BME280;9379;52.134;11.576;2023-03-14T11:44:20;98359.66;;;15.26;77.06
18500;BME280;9379;52.134;11.576;2023-03-14T11:46:51;98380.91;;;15.21;77.20
18500;BME280;9379;52.134;11.576;2023-03-14T11:49:29;98381.63;;;15.35;76.97
18500;BME280;9379;52.134;11.576;2023-03-14T11:52:00;98373.63;;;15.53;76.44
18500;BME280;9379;52.134;11.576;2023-03-14T11:54:34;98367.63;;;15.94;75.82
18500;BME280;9379;52.134;11.576;2023-03-14T11:57:05;98372.78;;;16.26;75.38
18500;BME280;9379;52.134;11.576;2023-03-14T11:59:45;98368.72;;;16.83;74.05
18500;BME280;9379;52.134;11.576;2023-03-14T12:02:19;98374.34;;;17.05;70.97
18500;BME280;9379;52.134;11.576;2023-03-14T12:05:25;98366.09;;;16.77;72.67
18500;BME280;9379;52.134;11.576;2023-03-14T12:10:48;98365.78;;;16.55;74.03
18500;BME280;9379;52.134;11.576;2023-03-14T12:13:17;98373.34;;;16.76;72.55
18500;BME280;9379;52.134;11.576;2023-03-14T12:15:48;98370.75;;;16.10;74.70
18500;BME280;9379;52.134;11.576;2023-03-14T12:18:20;98354.34;;;16.18;75.46
18500;BME280;9379;52.134;11.576;2023-03-14T12:20:56;98362.56;;;16.04;74.64
18500;BME280;9379;52.134;11.576;2023-03-14T12:23:24;98355.06;;;16.85;73.27
18500;BME280;9379;52.134;11.576;2023-03-14T12:26:08;98346.91;;;16.80;73.12
18500;BME280;9379;52.134;11.576;2023-03-14T12:28:43;98344.56;;;16.53;73.57
18500;BME280;9379;52.134;11.576;2023-03-14T12:31:38;98342.91;;;16.11;74.24
18500;BME280;9379;52.134;11.576;2023-03-14T12:34:30;98345.38;;;16.54;72.28
18500;BME280;9379;52.134;11.576;2023-03-14T12:37:05;98346.50;;;15.86;74.76
18500;BME280;9379;52.134;11.576;2023-03-14T12:39:43;98351.28;;;15.66;76.18
18500;BME280;9379;52.134;11.576;2023-03-14T12:42:13;98336.09;;;16.26;78.41
18500;BME280;9379;52.134;11.576;2023-03-14T12:44:46;98338.59;;;16.40;77.08
18500;BME280;9379;52.134;11.576;2023-03-14T12:47:45;98334.81;;;16.29;78.12
18500;BME280;9379;52.134;11.576;2023-03-14T12:50:34;98327.25;;;16.08;76.47
18500;BME280;9379;52.134;11.576;2023-03-14T12:53:19;98327.22;;;15.96;77.56
18500;BME280;9379;52.134;11.576;2023-03-14T12:55:52;98319.38;;;15.64;77.60
18500;BME280;9379;52.134;11.576;2023-03-14T12:58:29;98325.16;;;15.80;76.32
18500;BME280;9379;52.134;11.576;2023-03-14T13:01:02;98313.69;;;15.91;75.05
18500;BME280;9379;52.134;11.576;2023-03-14T13:03:39;98332.00;;;15.75;76.57
18500;BME280;9379;52.134;11.576;2023-03-14T13:06:09;98336.72;;;15.37;80.61
18500;BME280;9379;52.134;11.576;2023-03-14T13:08:39;98338.38;;;14.63;88.06
18500;BME280;9379;52.134;11.576;2023-03-14T13:11:09;98328.13;;;14.60;89.68
18500;BME280;9379;52.134;11.576;2023-03-14T13:13:42;98331.84;;;14.84;89.63
18500;BME280;9379;52.134;11.576;2023-03-14T13:16:16;98337.22;;;14.84;89.87
18500;BME280;9379;52.134;11.576;2023-03-14T13:18:44;98330.38;;;14.88;87.29
18500;BME280;9379;52.134;11.576;2023-03-14T13:21:14;98339.91;;;15.02;88.78
18500;BME280;9379;52.134;11.576;2023-03-14T13:23:56;98344.63;;;14.44;90.23